Terminal Aerodrome Forecast
Issued by NWS

Home | Current Version | Previous Version | Text Only | Print | Product List | Glossary On
Versions: 1 2 3 4 5 6 7 8 9 10 11 12 13 14 15 16 17
000
FTAK31 PAJN 040527
TAFAKT
TAF
PAKT 040527Z 0406/0506 34005KT P6SM -SHRA SCT015 SCT025
     FM041000 VRB04KT 6SM -SHRA BR SCT008 SCT012 OVC025
     FM041500 14008KT 6SM -SHRA BR BKN020 OVC040
     FM050400 15007KT P6SM VCSH BKN025 OVC040=

USA.gov is the U.S. government's official web portal to all federal, state and local government web resources and services.